Schillplate — ZDJJ8 — position and weather

sailwx.info

Track history (hours):
 
Tides and Currents Weather Stations Pressure Air Temp Water Temp Dewpoint Dewpoint Depression Visibility Wind Speed Wind Dir Waves Ship Positions

Schillplate

Last reported at 2016-Apr-14 12:25 UTC. Time now 2016-May-05 14:17 UTC.
Position N 54°14' E 005°07'.
Warning: this ship's position is 21 days out of date.

Length 86 m; draft 4.7 m.

Type: Cargo ship. MMSI: 236111603.

Date/timePositionNaut miles runAvg speedWind from/ knotsBaromVisibWave heightAir tempDewpointWater temp
2016-Apr-14 12:25N 54°14' E 005°07'1011.2
2016-Apr-14 11:32N 54°04' E 005°07'1211.8
2016-Apr-14 10:33N 53°53' E 005°01'1312.2
2016-Apr-14 09:29N 53°41' E 004°53'3511.9
2016-Apr-14 06:30N 53°09' E 004°29'1110.8
2016-Apr-14 05:31N 52°59' E 004°21'1010.2
2016-Apr-14 04:33N 52°51' E 004°13'1010.0
2016-Apr-14 03:33N 52°43' E 004°03'1010.0
2016-Apr-14 02:33N 52°35' E 003°52'10 9.8
2016-Apr-14 01:33N 52°28' E 003°41'10 9.6
2016-Apr-14 00:33N 52°20' E 003°32'3710.7
2016-Apr-13 21:08N 51°45' E 003°17'610.2
2016-Apr-13 20:32N 51°39' E 003°21'1211.9
2016-Apr-13 19:34N 51°29' E 003°30'10 9.8
2016-Apr-13 18:34N 51°23' E 003°43'5 4.9
2016-Apr-13 17:33N 51°20' E 003°49'4 3.6
2016-Apr-13 16:34N 51°17' E 003°50'1 0.8
2016-Apr-13 15:32N 51°16' E 003°50'0 0.0
2016-Apr-13 14:32N 51°16' E 003°50'0 0.0
2016-Apr-13 13:32N 51°16' E 003°50'0 0.0
2016-Apr-13 12:32N 51°16' E 003°50'0 0.0
2016-Apr-13 11:32N 51°16' E 003°50'0 0.0
2016-Apr-13 10:32N 51°16' E 003°50'0 0.0
2016-Apr-13 09:32N 51°16' E 003°50'0 0.0
2016-Apr-13 08:32N 51°16' E 003°50'0 0.0
2016-Apr-13 07:32N 51°16' E 003°50'0 0.0
2016-Apr-13 06:32N 51°16' E 003°50'0 0.0
2016-Apr-13 05:32N 51°16' E 003°50'0 0.0
2016-Apr-13 04:32N 51°16' E 003°50'0 0.0
2016-Apr-13 03:32N 51°16' E 003°50'0 0.0
2016-Apr-13 02:32N 51°16' E 003°50'0 0.0
2016-Apr-13 01:32N 51°16' E 003°50'0 0.0
2016-Apr-13 00:32N 51°16' E 003°50'0 0.0
2016-Apr-12 23:32N 51°16' E 003°50'0 0.0
2016-Apr-12 22:32N 51°16' E 003°50'0 0.0
2016-Apr-12 21:32N 51°16' E 003°50'0 0.0
2016-Apr-12 20:32N 51°16' E 003°50'0 0.0
2016-Apr-12 19:32N 51°16' E 003°50'0 0.0
2016-Apr-12 18:32N 51°16' E 003°50'0 0.0
2016-Apr-12 17:29N 51°16' E 003°50'0 0.0
2016-Apr-12 16:32N 51°16' E 003°50'0 0.0
2016-Apr-12 15:32N 51°16' E 003°50'0 0.0
2016-Apr-12 14:32N 51°16' E 003°50'0 0.0
2016-Apr-12 13:32N 51°16' E 003°50'0 0.0
2016-Apr-12 12:31N 51°16' E 003°50'0 0.1
2016-Apr-12 11:31N 51°16' E 003°50'0 0.0
2016-Apr-12 10:31N 51°16' E 003°50'0 0.0
2016-Apr-12 09:31N 51°16' E 003°50'0 0.0
2016-Apr-12 08:31N 51°16' E 003°50'0 0.0
2016-Apr-12 07:31N 51°16' E 003°50'0 0.0
2016-Apr-12 06:31N 51°16' E 003°50'0 0.0
2016-Apr-12 05:31N 51°16' E 003°50'0 0.0
2016-Apr-12 04:31N 51°16' E 003°50'0 0.0
2016-Apr-12 03:31N 51°16' E 003°50'0 0.0
2016-Apr-12 02:31N 51°16' E 003°50'0 0.0
2016-Apr-12 01:31N 51°16' E 003°50'0 0.0
2016-Apr-12 00:31N 51°16' E 003°50'0 0.0
2016-Apr-11 23:31N 51°16' E 003°50'0 0.0
2016-Apr-11 22:33N 51°16' E 003°50'4 4.1
2016-Apr-11 21:33N 51°20' E 003°49'4 4.5
2016-Apr-11 20:34N 51°23' E 003°44'7 7.0
2016-Apr-11 19:34N 51°26' E 003°34'8 7.8
2016-Apr-11 18:33N 51°32' E 003°25'9 9.2
2016-Apr-11 17:33N 51°40' E 003°19'5 0.4
2016-Apr-11 04:28N 51°45' E 003°19'0 0.0
2016-Apr-11 03:28N 51°45' E 003°19'0 0.1
2016-Apr-11 02:10N 51°45' E 003°18'0 0.0
2016-Apr-11 01:29N 51°45' E 003°18'0 0.0
2016-Apr-11 00:27N 51°45' E 003°18'0 0.0
2016-Apr-10 23:30N 51°45' E 003°18'0 0.0
2016-Apr-10 22:32N 51°45' E 003°18'0 0.0
2016-Apr-10 21:19N 51°45' E 003°18'0 0.0
2016-Apr-10 17:28N 51°45' E 003°19'0 0.0
2016-Apr-10 16:31N 51°45' E 003°19'0 0.0
2016-Apr-10 15:28N 51°45' E 003°19'0 0.0
2016-Apr-10 14:25N 51°45' E 003°19'0 0.1
2016-Apr-10 13:10N 51°45' E 003°19'0 0.0
2016-Apr-10 12:22N 51°45' E 003°19'0 0.0
2016-Apr-10 09:25N 51°45' E 003°19'0 0.1
2016-Apr-10 08:31N 51°45' E 003°19'0 0.1
2016-Apr-10 07:19N 51°45' E 003°19'0 0.0
2016-Apr-10 06:22N 51°45' E 003°19'0 0.0
2016-Apr-10 05:31N 51°45' E 003°19'0 0.0
2016-Apr-10 04:31N 51°45' E 003°19'0 0.0
2016-Apr-09 07:31N 51°45' E 003°19'0 0.0
2016-Apr-09 06:28N 51°45' E 003°19'0 0.0
2016-Apr-09 05:28N 51°45' E 003°19'0 0.0
2016-Apr-09 04:28N 51°45' E 003°19'0 0.0
2016-Apr-09 03:10N 51°45' E 003°19'0 0.0
2016-Apr-09 01:31N 51°45' E 003°19'0 0.1
2016-Apr-08 23:25N 51°45' E 003°19'0 0.0
2016-Apr-08 22:25N 51°45' E 003°19'0 0.0
2016-Apr-08 21:10N 51°45' E 003°18'0 0.0
2016-Apr-08 20:28N 51°45' E 003°19'0 0.1
2016-Apr-08 19:31N 51°45' E 003°19'0 0.1
2016-Apr-08 18:31N 51°45' E 003°19'0 0.0
2016-Apr-08 17:25N 51°45' E 003°19'0 0.0
2016-Apr-08 14:22N 51°45' E 003°19'0 0.0
2016-Apr-08 12:13N 51°45' E 003°19'3 3.7
2016-Apr-08 11:32N 51°48' E 003°20'1010.4
2016-Apr-08 10:32N 51°58' E 003°20'1010.4
2016-Apr-08 09:33N 52°08' E 003°20'1110.6
2016-Apr-08 08:33N 52°19' E 003°17'1110.7
2016-Apr-08 07:30N 52°30' E 003°15'  
Track history (hours):
 
Tides and Currents Weather Stations Pressure Air Temp Water Temp Dewpoint Dewpoint Depression Visibility Wind Speed Wind Dir Waves Ship Positions

Schillplate

Last reported at 2016-Apr-14 12:25 UTC. Time now 2016-May-05 14:17 UTC.
Position N 54°14' E 005°07'.
Warning: this ship's position is 21 days out of date.

Length 86 m; draft 4.7 m.

Type: Cargo ship. MMSI: 236111603.

Date/timePositionNaut miles runAvg speedWind from/ knotsBaromVisibWave heightAir tempDewpointWater temp
2016-Apr-14 12:25N 54°14' E 005°07'1011.2
2016-Apr-14 11:32N 54°04' E 005°07'1211.8
2016-Apr-14 10:33N 53°53' E 005°01'1312.2
2016-Apr-14 09:29N 53°41' E 004°53'3511.9
2016-Apr-14 06:30N 53°09' E 004°29'1110.8
2016-Apr-14 05:31N 52°59' E 004°21'1010.2
2016-Apr-14 04:33N 52°51' E 004°13'1010.0
2016-Apr-14 03:33N 52°43' E 004°03'1010.0
2016-Apr-14 02:33N 52°35' E 003°52'10 9.8
2016-Apr-14 01:33N 52°28' E 003°41'10 9.6
2016-Apr-14 00:33N 52°20' E 003°32'3710.7
2016-Apr-13 21:08N 51°45' E 003°17'610.2
2016-Apr-13 20:32N 51°39' E 003°21'1211.9
2016-Apr-13 19:34N 51°29' E 003°30'10 9.8
2016-Apr-13 18:34N 51°23' E 003°43'5 4.9
2016-Apr-13 17:33N 51°20' E 003°49'4 3.6
2016-Apr-13 16:34N 51°17' E 003°50'1 0.8
2016-Apr-13 15:32N 51°16' E 003°50'0 0.0
2016-Apr-13 14:32N 51°16' E 003°50'0 0.0
2016-Apr-13 13:32N 51°16' E 003°50'0 0.0
2016-Apr-13 12:32N 51°16' E 003°50'0 0.0
2016-Apr-13 11:32N 51°16' E 003°50'0 0.0
2016-Apr-13 10:32N 51°16' E 003°50'0 0.0
2016-Apr-13 09:32N 51°16' E 003°50'0 0.0
2016-Apr-13 08:32N 51°16' E 003°50'0 0.0
2016-Apr-13 07:32N 51°16' E 003°50'0 0.0
2016-Apr-13 06:32N 51°16' E 003°50'0 0.0
2016-Apr-13 05:32N 51°16' E 003°50'0 0.0
2016-Apr-13 04:32N 51°16' E 003°50'0 0.0
2016-Apr-13 03:32N 51°16' E 003°50'0 0.0
2016-Apr-13 02:32N 51°16' E 003°50'0 0.0
2016-Apr-13 01:32N 51°16' E 003°50'0 0.0
2016-Apr-13 00:32N 51°16' E 003°50'0 0.0
2016-Apr-12 23:32N 51°16' E 003°50'0 0.0
2016-Apr-12 22:32N 51°16' E 003°50'0 0.0
2016-Apr-12 21:32N 51°16' E 003°50'0 0.0
2016-Apr-12 20:32N 51°16' E 003°50'0 0.0
2016-Apr-12 19:32N 51°16' E 003°50'0 0.0
2016-Apr-12 18:32N 51°16' E 003°50'0 0.0
2016-Apr-12 17:29N 51°16' E 003°50'0 0.0
2016-Apr-12 16:32N 51°16' E 003°50'0 0.0
2016-Apr-12 15:32N 51°16' E 003°50'0 0.0
2016-Apr-12 14:32N 51°16' E 003°50'0 0.0
2016-Apr-12 13:32N 51°16' E 003°50'0 0.0
2016-Apr-12 12:31N 51°16' E 003°50'0 0.1
2016-Apr-12 11:31N 51°16' E 003°50'0 0.0
2016-Apr-12 10:31N 51°16' E 003°50'0 0.0
2016-Apr-12 09:31N 51°16' E 003°50'0 0.0
2016-Apr-12 08:31N 51°16' E 003°50'0 0.0
2016-Apr-12 07:31N 51°16' E 003°50'0 0.0
2016-Apr-12 06:31N 51°16' E 003°50'0 0.0
2016-Apr-12 05:31N 51°16' E 003°50'0 0.0
2016-Apr-12 04:31N 51°16' E 003°50'0 0.0
2016-Apr-12 03:31N 51°16' E 003°50'0 0.0
2016-Apr-12 02:31N 51°16' E 003°50'0 0.0
2016-Apr-12 01:31N 51°16' E 003°50'0 0.0
2016-Apr-12 00:31N 51°16' E 003°50'0 0.0
2016-Apr-11 23:31N 51°16' E 003°50'0 0.0
2016-Apr-11 22:33N 51°16' E 003°50'4 4.1
2016-Apr-11 21:33N 51°20' E 003°49'4 4.5
2016-Apr-11 20:34N 51°23' E 003°44'7 7.0
2016-Apr-11 19:34N 51°26' E 003°34'8 7.8
2016-Apr-11 18:33N 51°32' E 003°25'9 9.2
2016-Apr-11 17:33N 51°40' E 003°19'5 0.4
2016-Apr-11 04:28N 51°45' E 003°19'0 0.0
2016-Apr-11 03:28N 51°45' E 003°19'0 0.1
2016-Apr-11 02:10N 51°45' E 003°18'0 0.0
2016-Apr-11 01:29N 51°45' E 003°18'0 0.0
2016-Apr-11 00:27N 51°45' E 003°18'0 0.0
2016-Apr-10 23:30N 51°45' E 003°18'0 0.0
2016-Apr-10 22:32N 51°45' E 003°18'0 0.0
2016-Apr-10 21:19N 51°45' E 003°18'0 0.0
2016-Apr-10 17:28N 51°45' E 003°19'0 0.0
2016-Apr-10 16:31N 51°45' E 003°19'0 0.0
2016-Apr-10 15:28N 51°45' E 003°19'0 0.0
2016-Apr-10 14:25N 51°45' E 003°19'0 0.1
2016-Apr-10 13:10N 51°45' E 003°19'0 0.0
2016-Apr-10 12:22N 51°45' E 003°19'0 0.0
2016-Apr-10 09:25N 51°45' E 003°19'0 0.1
2016-Apr-10 08:31N 51°45' E 003°19'0 0.1
2016-Apr-10 07:19N 51°45' E 003°19'0 0.0
2016-Apr-10 06:22N 51°45' E 003°19'0 0.0
2016-Apr-10 05:31N 51°45' E 003°19'0 0.0
2016-Apr-10 04:31N 51°45' E 003°19'0 0.0
2016-Apr-09 07:31N 51°45' E 003°19'0 0.0
2016-Apr-09 06:28N 51°45' E 003°19'0 0.0
2016-Apr-09 05:28N 51°45' E 003°19'0 0.0
2016-Apr-09 04:28N 51°45' E 003°19'0 0.0
2016-Apr-09 03:10N 51°45' E 003°19'0 0.0
2016-Apr-09 01:31N 51°45' E 003°19'0 0.1
2016-Apr-08 23:25N 51°45' E 003°19'0 0.0
2016-Apr-08 22:25N 51°45' E 003°19'0 0.0
2016-Apr-08 21:10N 51°45' E 003°18'0 0.0
2016-Apr-08 20:28N 51°45' E 003°19'0 0.1
2016-Apr-08 19:31N 51°45' E 003°19'0 0.1
2016-Apr-08 18:31N 51°45' E 003°19'0 0.0
2016-Apr-08 17:25N 51°45' E 003°19'0 0.0
2016-Apr-08 14:22N 51°45' E 003°19'0 0.0
2016-Apr-08 12:13N 51°45' E 003°19'3 3.7
2016-Apr-08 11:32N 51°48' E 003°20'1010.4
2016-Apr-08 10:32N 51°58' E 003°20'1010.4
2016-Apr-08 09:33N 52°08' E 003°20'1110.6
2016-Apr-08 08:33N 52°19' E 003°17'1110.7
2016-Apr-08 07:30N 52°30' E 003°15'  

Dump ship's entire track history